Bettles Airport Bettles US
ICAO: PABT
IATA:
Category: Medium
Scheduled Services:

Elevation: 647 ft
TransAlt. 18000 ft.

Airport Communications:
ASOS:135.45
ANCHORAGE CNTR:124.6
CTAF:122.9
FAIRBANKS RDO:122.2
TWEB:116

PABT Zoom In..

If you have problems with the map follow the link
https://www.worldairports.se/pages/airport.php?
ICAO=PABT

Runways:

(A) RW 01 length 5190 ft width 150 ft
LOC 108.70 / hdg 12

(B) RW 19 length 5190 ft width 150 ft
LOC 108.70 / hdg 192

Location; PABT
Day. 29 / Time. 09.53 Zulu
* Altimeter: 29.59
* Temperature: -27° c. 16.6°f.
* Wind from: 010° Speed 06 kn.
Dewpoint: -32° c.
Visibility: 10 Statute Miles.
Clouds: Few 12000 ft.

PABT 290953Z 01006KT 10SM FEW120 M27/M32 A2959 RMK AO2 SLP051 T12721322


Wind From 010°
Speed 06 kn.

 
 
jpsmedia worldairports.se 2020   terms of use